createdAt,value
2022-08-09T00:01:20.986Z,14.68
2022-08-09T00:04:24.983Z,14.98
2022-08-09T00:07:21.852Z,15.02
2022-08-09T00:10:21.044Z,13.65
2022-08-09T00:13:16.722Z,15.82
2022-08-09T00:16:07.636Z,10.00
2022-08-09T00:19:03.030Z,14.82
2022-08-09T00:21:59.677Z,10.02
2022-08-09T00:24:49.818Z,12.70
2022-08-09T00:27:43.150Z,14.45
2022-08-09T00:30:33.143Z,12.35
2022-08-09T00:33:48.838Z,13.35
2022-08-09T00:36:33.827Z,12.48
2022-08-09T00:40:12.258Z,10.43
2022-08-09T00:44:15.931Z,9.30
2022-08-09T00:45:50.399Z,12.55
2022-08-09T00:48:47.558Z,10.25
2022-08-09T00:51:54.502Z,8.55
2022-08-09T00:54:45.614Z,9.35
2022-08-09T00:57:35.814Z,7.18
2022-08-09T01:00:26.877Z,10.35
2022-08-09T01:03:59.267Z,10.90
2022-08-09T01:07:14.053Z,11.75
2022-08-09T01:10:07.357Z,8.88
2022-08-09T01:13:09.242Z,11.88
2022-08-09T01:16:03.345Z,11.07
2022-08-09T01:19:04.227Z,11.07
2022-08-09T01:22:12.429Z,12.95
2022-08-09T01:25:22.269Z,15.77
2022-08-09T01:28:12.977Z,12.52
2022-08-09T01:31:06.987Z,11.35
2022-08-09T01:34:01.621Z,14.38
2022-08-09T01:36:54.857Z,14.18
2022-08-09T01:39:47.270Z,12.93
2022-08-09T01:42:38.965Z,12.43
2022-08-09T01:45:31.004Z,12.23
2022-08-09T01:48:24.184Z,11.95
2022-08-09T01:51:22.759Z,10.93
2022-08-09T01:54:13.811Z,15.73
2022-08-09T01:57:27.332Z,9.57
2022-08-09T02:00:35.845Z,12.68
2022-08-09T02:03:26.234Z,9.93
2022-08-09T02:06:19.501Z,9.82
2022-08-09T02:09:15.858Z,8.13
2022-08-09T02:12:09.766Z,9.70
2022-08-09T02:15:06.331Z,9.65
2022-08-09T02:18:10.007Z,9.77
2022-08-09T02:21:06.261Z,8.07
2022-08-09T02:23:58.448Z,9.52
2022-08-09T02:26:58.612Z,10.32
2022-08-09T02:29:52.223Z,8.25
2022-08-09T02:32:47.204Z,6.88
2022-08-09T02:36:01.986Z,11.63
2022-08-09T02:38:57.362Z,7.82
2022-08-09T02:41:52.167Z,12.35
2022-08-09T02:44:46.894Z,13.75
2022-08-09T02:47:58.102Z,14.73
2022-08-09T02:50:56.399Z,16.85
2022-08-09T02:54:01.124Z,14.65
2022-08-09T02:56:56.903Z,13.68
2022-08-09T03:00:20.469Z,37.15
2022-08-09T03:03:02.198Z,9.70
2022-08-09T03:05:55.604Z,7.63
2022-08-09T03:08:49.296Z,11.52
2022-08-09T03:12:05.856Z,18.58
2022-08-09T03:14:51.916Z,10.52
2022-08-09T03:17:42.520Z,7.03
2022-08-09T03:20:33.445Z,8.25
2022-08-09T03:23:24.629Z,8.43
2022-08-09T03:26:19.048Z,14.38
2022-08-09T03:29:13.519Z,8.00
2022-08-09T03:32:13.519Z,9.80
2022-08-09T03:35:14.767Z,10.80
2022-08-09T03:38:28.552Z,9.43
2022-08-09T03:41:19.564Z,7.13
2022-08-09T03:44:20.823Z,10.52
2022-08-09T03:47:17.782Z,14.70
2022-08-09T03:50:10.539Z,10.50
2022-08-09T03:53:05.203Z,10.52
2022-08-09T03:55:56.122Z,8.77
2022-08-09T03:58:47.061Z,8.50
2022-08-09T04:01:42.051Z,17.10
2022-08-09T04:04:38.886Z,9.20
2022-08-09T04:07:33.920Z,10.02
2022-08-09T04:10:40.637Z,8.75
2022-08-09T04:14:37.762Z,8.70
2022-08-09T04:16:40.751Z,10.50
2022-08-09T04:19:50.803Z,6.50
2022-08-09T04:22:44.305Z,7.75
2022-08-09T04:25:36.025Z,5.43
2022-08-09T04:28:34.240Z,7.82
2022-08-09T04:31:37.376Z,6.03
2022-08-09T04:34:34.965Z,5.35
2022-08-09T04:37:45.102Z,6.38
2022-08-09T04:40:56.447Z,4.25
2022-08-09T04:44:05.620Z,5.05
2022-08-09T04:46:59.121Z,5.13
2022-08-09T04:49:55.081Z,6.22
2022-08-09T04:52:45.735Z,7.63
2022-08-09T04:55:39.049Z,5.80
2022-08-09T04:58:46.346Z,7.93
2022-08-09T05:01:40.410Z,4.90
2022-08-09T05:04:30.818Z,9.40
2022-08-09T05:07:21.578Z,9.35
2022-08-09T05:10:16.924Z,10.43
2022-08-09T05:13:07.349Z,8.40
2022-08-09T05:16:04.618Z,6.25
2022-08-09T05:18:59.328Z,6.80
2022-08-09T05:21:55.832Z,14.18
2022-08-09T05:24:47.669Z,12.23
2022-08-09T05:27:45.412Z,7.10
2022-08-09T05:30:37.543Z,9.38
2022-08-09T05:33:33.181Z,9.60
2022-08-09T05:36:28.834Z,13.10
2022-08-09T05:39:21.763Z,13.48
2022-08-09T05:42:21.852Z,13.82
2022-08-09T05:45:18.376Z,13.00
2022-08-09T05:48:09.743Z,14.73
2022-08-09T05:51:29.783Z,8.73
2022-08-09T05:54:11.318Z,9.90
2022-08-09T05:57:02.181Z,9.00
2022-08-09T05:59:55.927Z,21.85
2022-08-09T06:02:46.978Z,10.88
2022-08-09T06:05:57.423Z,9.25
2022-08-09T06:08:52.574Z,10.27
2022-08-09T06:11:57.604Z,6.60
2022-08-09T06:14:48.131Z,8.05
2022-08-09T06:17:39.929Z,9.52
2022-08-09T06:20:31.018Z,9.35
2022-08-09T06:23:24.289Z,12.50
2022-08-09T06:26:34.649Z,8.90
2022-08-09T06:29:26.854Z,6.18
2022-08-09T06:32:53.600Z,5.38
2022-08-09T06:35:55.652Z,8.63
2022-08-09T06:38:37.713Z,9.65
2022-08-09T06:42:08.170Z,8.65
2022-08-09T06:44:41.378Z,9.10
2022-08-09T06:47:39.513Z,12.82
2022-08-09T06:50:32.268Z,9.88
2022-08-09T06:53:22.945Z,8.57
2022-08-09T06:56:14.412Z,8.38
2022-08-09T07:00:51.879Z,6.85
2022-08-09T07:02:15.122Z,13.57
2022-08-09T07:05:06.934Z,12.38
2022-08-09T07:08:00.670Z,10.18
2022-08-09T07:10:52.617Z,13.73
2022-08-09T07:13:45.130Z,6.35
2022-08-09T07:16:57.705Z,6.10
2022-08-09T07:19:50.817Z,8.57
2022-08-09T07:22:52.434Z,5.55
2022-08-09T07:25:44.245Z,14.60
2022-08-09T07:28:34.672Z,9.60
2022-08-09T07:31:26.350Z,9.13
2022-08-09T07:34:21.195Z,7.10
2022-08-09T07:37:16.655Z,9.57
2022-08-09T07:40:08.057Z,6.57
2022-08-09T07:43:02.227Z,12.43
2022-08-09T07:45:52.440Z,31.73
2022-08-09T07:48:42.444Z,15.20
2022-08-09T07:52:04.683Z,8.85
2022-08-09T07:54:45.058Z,14.23
2022-08-09T07:57:47.277Z,17.92
2022-08-09T08:00:55.513Z,15.10
2022-08-09T08:03:48.170Z,11.25
2022-08-09T08:06:55.524Z,15.98
2022-08-09T08:09:53.338Z,13.35
2022-08-09T08:12:46.561Z,11.90
2022-08-09T08:15:37.766Z,16.55
2022-08-09T08:18:29.318Z,14.18
2022-08-09T08:21:21.797Z,20.45
2022-08-09T08:24:16.795Z,16.27
2022-08-09T08:27:17.207Z,11.75
2022-08-09T08:30:11.306Z,13.50
2022-08-09T08:33:01.456Z,12.00
2022-08-09T08:36:00.769Z,14.02
2022-08-09T08:38:57.406Z,18.77
2022-08-09T08:41:51.548Z,14.18
2022-08-09T08:44:43.639Z,14.07
2022-08-09T08:47:38.550Z,16.60
2022-08-09T08:50:33.230Z,16.05
2022-08-09T08:53:25.054Z,15.52
2022-08-09T08:56:28.004Z,14.82
2022-08-09T08:59:20.462Z,17.40
2022-08-09T09:02:14.768Z,15.93
2022-08-09T09:05:57.891Z,20.42
2022-08-09T09:08:42.142Z,19.23
2022-08-09T09:11:33.924Z,20.85
2022-08-09T09:14:29.437Z,15.55
2022-08-09T09:17:21.350Z,17.13
2022-08-09T09:20:15.488Z,13.75
2022-08-09T09:23:06.239Z,12.93
2022-08-09T09:26:04.631Z,20.92
2022-08-09T09:29:10.963Z,15.60
2022-08-09T09:32:15.711Z,19.15
2022-08-09T09:35:09.642Z,15.98
2022-08-09T09:38:01.130Z,21.35
2022-08-09T09:40:51.296Z,19.20
2022-08-09T09:44:10.666Z,19.02
2022-08-09T09:46:52.756Z,17.90
2022-08-09T09:50:06.967Z,21.35
2022-08-09T09:52:57.788Z,15.57
2022-08-09T09:56:04.579Z,13.57
2022-08-09T09:58:55.162Z,15.77
2022-08-09T10:01:47.313Z,27.77
2022-08-09T10:04:38.017Z,29.08
2022-08-09T10:07:30.261Z,28.42
2022-08-09T10:10:32.123Z,23.77
2022-08-09T10:13:24.753Z,17.05
2022-08-09T10:16:56.722Z,21.17
2022-08-09T10:19:46.918Z,31.35
2022-08-09T10:22:45.799Z,35.13
2022-08-09T10:26:07.712Z,34.90
2022-08-09T10:28:48.675Z,40.13
2022-08-09T10:35:07.751Z,47.40
2022-08-09T10:38:05.202Z,52.97
2022-08-09T10:41:17.852Z,36.70
2022-08-09T10:44:08.459Z,57.03
2022-08-09T10:48:16.750Z,51.35
2022-08-09T10:51:29.642Z,78.82
2022-08-09T10:54:31.503Z,63.70
2022-08-09T10:57:24.980Z,94.80
2022-08-09T11:01:11.438Z,188.75
2022-08-09T11:04:20.080Z,314.85
2022-08-09T11:07:21.314Z,330.58
2022-08-09T11:10:11.810Z,271.52
2022-08-09T11:13:49.787Z,588.50
2022-08-09T11:16:40.836Z,368.92
2022-08-09T11:20:22.337Z,298.88
2022-08-09T11:23:14.993Z,846.13
2022-08-09T11:26:07.321Z,725.75
2022-08-09T11:28:57.304Z,213.13
2022-08-09T11:31:52.615Z,345.25
2022-08-09T11:34:51.528Z,348.35
2022-08-09T11:37:43.673Z,465.42
2022-08-09T11:40:39.650Z,528.45
2022-08-09T11:43:32.111Z,304.65
2022-08-09T11:46:33.289Z,367.02
2022-08-09T11:50:56.198Z,243.82
2022-08-09T11:53:58.813Z,169.75
2022-08-09T11:56:42.730Z,111.93
2022-08-09T11:59:38.995Z,72.97
2022-08-09T12:02:37.203Z,67.82
2022-08-09T12:05:37.930Z,57.25
2022-08-09T12:08:30.686Z,58.72
2022-08-09T12:11:27.035Z,50.25
2022-08-09T12:14:48.830Z,47.60
2022-08-09T12:17:41.679Z,44.13
2022-08-09T12:20:36.059Z,45.67
2022-08-09T12:23:56.501Z,45.13
2022-08-09T12:28:58.117Z,35.83
2022-08-09T12:30:37.048Z,42.65
2022-08-09T12:33:13.195Z,31.60
2022-08-09T12:36:27.767Z,26.40
2022-08-09T12:39:17.209Z,29.92
2022-08-09T12:42:09.410Z,24.63
2022-08-09T12:44:59.545Z,26.08
2022-08-09T12:47:51.968Z,31.23
2022-08-09T12:50:42.855Z,32.97
2022-08-09T12:53:41.262Z,36.85
2022-08-09T12:56:54.135Z,33.47
2022-08-09T13:00:03.492Z,24.20
2022-08-09T13:02:56.981Z,32.17
2022-08-09T13:06:15.996Z,40.60
2022-08-09T13:09:13.483Z,37.38
2022-08-09T13:12:06.938Z,27.23
2022-08-09T13:15:07.334Z,32.08
2022-08-09T13:18:09.566Z,34.55
2022-08-09T13:22:37.826Z,36.88
2022-08-09T13:24:53.081Z,29.65
2022-08-09T13:27:48.241Z,22.38
2022-08-09T13:30:51.116Z,18.15
2022-08-09T13:33:58.423Z,18.20
2022-08-09T13:36:49.446Z,17.80
2022-08-09T13:41:55.144Z,20.70
2022-08-09T13:42:51.876Z,12.85
2022-08-09T13:46:44.681Z,18.35
2022-08-09T13:48:51.801Z,12.15
2022-08-09T13:51:41.741Z,17.23
2022-08-09T13:54:59.111Z,9.68
2022-08-09T13:57:53.086Z,15.98
2022-08-09T14:00:52.585Z,14.35
2022-08-09T14:04:02.245Z,12.63
2022-08-09T14:07:00.404Z,14.35
2022-08-09T14:09:54.428Z,18.33
2022-08-09T14:12:45.258Z,13.57
2022-08-09T14:16:09.786Z,12.60
2022-08-09T14:18:49.258Z,16.15
2022-08-09T14:21:40.744Z,17.50
2022-08-09T14:24:32.379Z,14.27
2022-08-09T14:27:23.945Z,16.05
2022-08-09T14:30:36.877Z,17.83
2022-08-09T14:33:26.841Z,13.23
2022-08-09T14:36:20.605Z,21.83
2022-08-09T14:39:11.872Z,16.50
2022-08-09T14:42:01.788Z,15.48
2022-08-09T14:44:59.321Z,12.90
2022-08-09T14:47:57.349Z,19.17
2022-08-09T14:50:50.036Z,16.25
2022-08-09T14:53:46.785Z,16.15
2022-08-09T14:56:53.632Z,13.70
2022-08-09T14:59:48.793Z,17.45
2022-08-09T15:02:40.188Z,18.17
2022-08-09T15:05:31.295Z,12.85
2022-08-09T15:08:23.870Z,17.92
2022-08-09T15:11:14.432Z,21.33
2022-08-09T15:14:13.251Z,12.27
2022-08-09T15:17:04.961Z,11.90
2022-08-09T15:19:59.381Z,16.15
2022-08-09T15:22:59.850Z,15.77
2022-08-09T15:25:53.400Z,16.42
2022-08-09T15:28:45.438Z,13.82
2022-08-09T15:31:45.014Z,11.55
2022-08-09T15:34:35.698Z,12.95
2022-08-09T15:37:57.026Z,16.67
2022-08-09T15:40:47.911Z,12.15
2022-08-09T15:43:40.619Z,11.48
2022-08-09T15:46:34.962Z,10.55
2022-08-09T15:49:24.962Z,10.10
2022-08-09T15:52:18.066Z,17.73
2022-08-09T15:55:10.286Z,11.65
2022-08-09T15:58:01.782Z,9.07
2022-08-09T16:00:52.070Z,9.15
2022-08-09T16:03:41.951Z,11.77
2022-08-09T16:06:35.291Z,14.93
2022-08-09T16:09:51.048Z,13.27
2022-08-09T16:12:37.646Z,8.77
2022-08-09T16:16:12.231Z,15.85
2022-08-09T16:18:50.097Z,9.63
2022-08-09T16:21:48.568Z,10.90
2022-08-09T16:24:42.319Z,8.50
2022-08-09T16:27:32.791Z,8.10
2022-08-09T16:30:29.796Z,9.65
2022-08-09T16:33:26.475Z,8.32
2022-08-09T16:36:18.609Z,8.45
2022-08-09T16:39:09.135Z,8.82
2022-08-09T16:42:03.582Z,8.20
2022-08-09T16:44:54.701Z,11.77
2022-08-09T16:48:40.750Z,8.30
2022-08-09T16:50:59.537Z,12.38
2022-08-09T16:54:25.930Z,11.25
2022-08-09T16:57:06.079Z,7.25
2022-08-09T17:00:01.058Z,14.63
2022-08-09T17:02:52.048Z,15.45
2022-08-09T17:06:07.858Z,10.55
2022-08-09T17:09:02.907Z,13.52
2022-08-09T17:12:02.665Z,17.80
2022-08-09T17:14:57.263Z,9.13
2022-08-09T17:17:51.546Z,11.85
2022-08-09T17:20:53.190Z,14.23
2022-08-09T17:24:27.972Z,17.33
2022-08-09T17:26:53.364Z,21.83
2022-08-09T17:29:45.435Z,21.00
2022-08-09T17:32:38.358Z,17.70
2022-08-09T17:35:28.442Z,21.20
2022-08-09T17:38:33.922Z,16.38
2022-08-09T17:41:38.677Z,18.13
2022-08-09T17:44:38.641Z,12.13
2022-08-09T17:47:49.661Z,14.30
2022-08-09T17:50:48.576Z,9.85
2022-08-09T17:53:52.197Z,7.75
2022-08-09T17:56:44.078Z,15.40
2022-08-09T17:59:38.450Z,9.93
2022-08-09T18:02:33.514Z,9.68
2022-08-09T18:05:23.886Z,11.52
2022-08-09T18:08:28.742Z,8.68
2022-08-09T18:11:18.387Z,9.52
2022-08-09T18:14:14.912Z,6.63
2022-08-09T18:17:06.036Z,10.70
2022-08-09T18:20:54.793Z,9.85
2022-08-09T18:23:08.053Z,5.03
2022-08-09T18:26:17.921Z,5.22
2022-08-09T18:30:34.963Z,5.82
2022-08-09T18:32:19.113Z,7.03
2022-08-09T18:35:10.391Z,6.13
2022-08-09T18:37:59.651Z,7.88
2022-08-09T18:40:51.049Z,8.05
2022-08-09T18:43:53.121Z,8.30
2022-08-09T18:46:46.933Z,7.00
2022-08-09T18:49:47.934Z,9.05
2022-08-09T18:52:43.957Z,6.63
2022-08-09T18:55:55.977Z,7.38
2022-08-09T18:58:45.591Z,9.73
2022-08-09T19:01:43.580Z,8.20
2022-08-09T19:04:35.789Z,14.48
2022-08-09T19:07:25.333Z,7.18
2022-08-09T19:10:17.720Z,11.23
2022-08-09T19:13:23.130Z,7.45
2022-08-09T19:16:21.216Z,9.48
2022-08-09T19:19:25.047Z,13.00
2022-08-09T19:22:16.859Z,10.75
2022-08-09T19:25:41.896Z,9.07
2022-08-09T19:28:18.434Z,7.53
2022-08-09T19:31:08.345Z,15.02
2022-08-09T19:33:58.251Z,10.60
2022-08-09T19:36:51.537Z,10.00
2022-08-09T19:40:03.891Z,13.13
2022-08-09T19:42:51.467Z,11.98
2022-08-09T19:45:42.479Z,12.65
2022-08-09T19:49:01.801Z,15.35
2022-08-09T19:51:42.164Z,13.38
2022-08-09T19:54:45.218Z,16.20
2022-08-09T19:57:35.345Z,12.10
2022-08-09T20:00:25.142Z,17.90
2022-08-09T20:04:07.616Z,15.70
2022-08-09T20:06:31.372Z,14.00
2022-08-09T20:09:45.009Z,15.68
2022-08-09T20:12:37.407Z,16.25
2022-08-09T20:16:33.583Z,16.13
2022-08-09T20:18:52.018Z,18.17
2022-08-09T20:21:59.789Z,18.85
2022-08-09T20:24:53.265Z,18.42
2022-08-09T20:27:44.569Z,18.40
2022-08-09T20:30:34.637Z,20.05
2022-08-09T20:33:25.323Z,17.92
2022-08-09T20:36:15.639Z,19.90
2022-08-09T20:39:29.094Z,17.70
2022-08-09T20:42:20.548Z,19.88
2022-08-09T20:45:59.837Z,20.08
2022-08-09T20:48:31.056Z,19.35
2022-08-09T20:51:25.787Z,21.42
2022-08-09T20:54:17.091Z,17.35
2022-08-09T20:57:08.082Z,19.90
2022-08-09T21:00:30.805Z,19.58
2022-08-09T21:03:07.798Z,21.17
2022-08-09T21:05:59.881Z,17.55
2022-08-09T21:08:51.137Z,20.25
2022-08-09T21:14:50.862Z,18.80
2022-08-09T21:18:11.855Z,21.25
2022-08-09T21:20:55.965Z,16.40
2022-08-09T21:23:51.611Z,16.17
2022-08-09T21:26:41.357Z,17.13
2022-08-09T21:29:49.407Z,18.90
2022-08-09T21:32:40.288Z,20.95
2022-08-09T21:35:31.859Z,22.40
2022-08-09T21:38:30.990Z,18.08
2022-08-09T21:41:21.255Z,17.63
2022-08-09T21:44:34.694Z,20.38
2022-08-09T21:47:25.451Z,24.38
2022-08-09T21:50:22.234Z,22.33
2022-08-09T21:53:23.928Z,25.90
2022-08-09T21:56:33.799Z,30.70
2022-08-09T21:59:42.743Z,21.10
2022-08-09T22:02:36.140Z,20.75
2022-08-09T22:05:35.973Z,21.23
2022-08-09T22:08:29.941Z,24.20
2022-08-09T22:12:06.259Z,21.67
2022-08-09T22:14:29.263Z,19.80
2022-08-09T22:17:21.781Z,23.88
2022-08-09T22:20:11.889Z,22.92
2022-08-09T22:23:13.386Z,25.65
2022-08-09T22:26:05.757Z,24.83
2022-08-09T22:29:07.146Z,22.77
2022-08-09T22:31:58.111Z,26.42
2022-08-09T22:34:59.074Z,26.48
2022-08-09T22:38:06.570Z,28.15
2022-08-09T22:40:57.882Z,28.45
2022-08-09T22:44:01.922Z,28.60
2022-08-09T22:48:15.375Z,30.92
2022-08-09T22:50:03.818Z,29.90
2022-08-09T22:52:54.858Z,29.88
2022-08-09T22:56:31.005Z,33.22
2022-08-09T22:58:59.396Z,33.83
2022-08-09T23:01:49.903Z,26.75
2022-08-09T23:04:42.590Z,27.55
2022-08-09T23:08:21.709Z,27.13
2022-08-09T23:10:59.963Z,32.17
2022-08-09T23:13:55.113Z,30.75
2022-08-09T23:16:44.899Z,29.00
2022-08-09T23:20:06.974Z,23.60
2022-08-09T23:22:44.887Z,27.92
2022-08-09T23:25:37.328Z,28.05
2022-08-09T23:28:28.125Z,26.02
2022-08-09T23:31:17.776Z,23.42
2022-08-09T23:34:07.641Z,20.58
2022-08-09T23:36:57.581Z,26.70
2022-08-09T23:39:48.221Z,29.00
2022-08-09T23:42:37.939Z,26.85
2022-08-09T23:45:36.354Z,24.17
2022-08-09T23:48:28.267Z,27.48
2022-08-09T23:51:18.885Z,26.58
2022-08-09T23:54:09.290Z,23.35
2022-08-09T23:56:59.971Z,25.08
